Main page
METAR-TAF:

METAR-TAF

Airports :

RAF Wittering

Wittering, England

latitude: 52-37N, longitude: 000-28W, elevation: 84 m

Current weather observation

The report was made 32 minutes ago, at 01:50 UTC
Wind 11 kt from the West/Southwest
Temperature 8°C
Humidity 100%
Pressure 1031 hPa
Visibility: 2100 m
mist

METAR: EGXT 210150Z AUTO 25011KT 2100 BR BKN002/// 08/08 Q1031

Time: 02:22 (02:22 UTC)

Forecast

The report was made 12 hours and 25 minutes ago, at 13:57 UTC
Forecast valid from 20 at 15 UTC to 20 at 18 UTC
Wind 8 kt from the West/Southwest
Visibility 10 km or more
Few clouds at a height of 2500 ft

TAF: EGXT 201357Z 2015/2018 24008KT 9999 FEW025

Weather observations and forecasts of more than 4000 airports (METAR and TAF reports).

The available stations are represented by yellow and red dots on the map.

Hover mouse over dot to see the name of the station.

Then click to see weather observations and forecasts.

To change the map : click on the green buttons with a black cross to zoom in, on the green button with a dash to zoom out, or on the green arrows for adjacent maps.


METAR-TAF: